sensor_id;sensor_type;location;lat;lon;timestamp;temperature;humidity
19734;DHT22;10018;51.230;7.860;2023-12-20T00:01:04;6.30;99.90
19734;DHT22;10018;51.230;7.860;2023-12-20T00:03:30;6.30;99.90
19734;DHT22;10018;51.230;7.860;2023-12-20T00:05:56;6.30;99.90
19734;DHT22;10018;51.230;7.860;2023-12-20T00:08:23;6.30;99.90
19734;DHT22;10018;51.230;7.860;2023-12-20T00:10:49;6.30;99.90
19734;DHT22;10018;51.230;7.860;2023-12-20T00:13:15;6.30;99.90
19734;DHT22;10018;51.230;7.860;2023-12-20T00:15:40;6.30;99.90
19734;DHT22;10018;51.230;7.860;2023-12-20T00:18:06;6.30;99.90
19734;DHT22;10018;51.230;7.860;2023-12-20T00:20:31;6.30;99.90
19734;DHT22;10018;51.230;7.860;2023-12-20T00:22:59;6.30;99.90
19734;DHT22;10018;51.230;7.860;2023-12-20T00:25:25;6.30;99.90
19734;DHT22;10018;51.230;7.860;2023-12-20T00:27:53;6.30;99.90
19734;DHT22;10018;51.230;7.860;2023-12-20T00:30:18;6.40;99.90
19734;DHT22;10018;51.230;7.860;2023-12-20T00:32:44;6.40;99.90
19734;DHT22;10018;51.230;7.860;2023-12-20T00:35:15;6.30;99.90
19734;DHT22;10018;51.230;7.860;2023-12-20T00:37:44;6.40;99.90
19734;DHT22;10018;51.230;7.860;2023-12-20T00:40:11;6.40;99.90
19734;DHT22;10018;51.230;7.860;2023-12-20T00:42:36;6.40;99.90
19734;DHT22;10018;51.230;7.860;2023-12-20T00:45:02;6.40;99.90
19734;DHT22;10018;51.230;7.860;2023-12-20T00:47:31;6.40;99.90
19734;DHT22;10018;51.230;7.860;2023-12-20T00:49:57;6.40;99.90
19734;DHT22;10018;51.230;7.860;2023-12-20T00:52:23;6.40;99.90
19734;DHT22;10018;51.230;7.860;2023-12-20T00:54:49;6.50;99.90
19734;DHT22;10018;51.230;7.860;2023-12-20T00:57:14;6.50;99.90
19734;DHT22;10018;51.230;7.860;2023-12-20T00:59:40;6.40;99.90
19734;DHT22;10018;51.230;7.860;2023-12-20T01:02:06;6.40;99.90
19734;DHT22;10018;51.230;7.860;2023-12-20T01:04:34;6.50;99.90
19734;DHT22;10018;51.230;7.860;2023-12-20T01:06:59;6.50;99.90
19734;DHT22;10018;51.230;7.860;2023-12-20T01:09:25;6.50;99.90
19734;DHT22;10018;51.230;7.860;2023-12-20T01:11:52;6.50;99.90
19734;DHT22;10018;51.230;7.860;2023-12-20T01:14:18;6.50;99.90
19734;DHT22;10018;51.230;7.860;2023-12-20T01:16:44;6.50;99.90
19734;DHT22;10018;51.230;7.860;2023-12-20T01:19:10;6.50;99.90
19734;DHT22;10018;51.230;7.860;2023-12-20T01:21:35;6.50;99.90
19734;DHT22;10018;51.230;7.860;2023-12-20T01:24:01;6.60;99.90
19734;DHT22;10018;51.230;7.860;2023-12-20T01:26:26;6.80;99.90
19734;DHT22;10018;51.230;7.860;2023-12-20T01:28:53;6.80;99.90
19734;DHT22;10018;51.230;7.860;2023-12-20T01:31:18;6.80;99.90
19734;DHT22;10018;51.230;7.860;2023-12-20T01:33:44;6.80;99.90
19734;DHT22;10018;51.230;7.860;2023-12-20T01:36:10;6.80;99.90
19734;DHT22;10018;51.230;7.860;2023-12-20T01:38:36;6.80;99.90
19734;DHT22;10018;51.230;7.860;2023-12-20T01:41:02;6.80;99.90
19734;DHT22;10018;51.230;7.860;2023-12-20T01:43:29;6.80;99.90
19734;DHT22;10018;51.230;7.860;2023-12-20T01:45:56;6.80;99.90
19734;DHT22;10018;51.230;7.860;2023-12-20T01:48:22;6.80;99.90
19734;DHT22;10018;51.230;7.860;2023-12-20T01:50:49;6.70;99.90
19734;DHT22;10018;51.230;7.860;2023-12-20T01:53:15;6.70;99.90
19734;DHT22;10018;51.230;7.860;2023-12-20T01:55:41;6.70;99.90
19734;DHT22;10018;51.230;7.860;2023-12-20T01:58:08;6.60;99.90
19734;DHT22;10018;51.230;7.860;2023-12-20T02:00:34;6.60;99.90
19734;DHT22;10018;51.230;7.860;2023-12-20T02:03:01;6.50;99.90
19734;DHT22;10018;51.230;7.860;2023-12-20T02:05:27;6.50;99.90
19734;DHT22;10018;51.230;7.860;2023-12-20T02:07:54;6.60;99.90
19734;DHT22;10018;51.230;7.860;2023-12-20T02:10:19;6.50;99.90
19734;DHT22;10018;51.230;7.860;2023-12-20T02:12:45;6.50;99.90
19734;DHT22;10018;51.230;7.860;2023-12-20T02:15:11;6.50;99.90
19734;DHT22;10018;51.230;7.860;2023-12-20T02:17:38;6.50;99.90
19734;DHT22;10018;51.230;7.860;2023-12-20T02:20:05;6.50;99.90
19734;DHT22;10018;51.230;7.860;2023-12-20T02:22:31;6.40;99.90
19734;DHT22;10018;51.230;7.860;2023-12-20T02:24:57;6.40;99.90
19734;DHT22;10018;51.230;7.860;2023-12-20T02:27:23;6.30;99.90
19734;DHT22;10018;51.230;7.860;2023-12-20T02:29:51;6.30;99.90
19734;DHT22;10018;51.230;7.860;2023-12-20T02:32:17;6.30;99.90
19734;DHT22;10018;51.230;7.860;2023-12-20T02:34:43;6.30;99.90
19734;DHT22;10018;51.230;7.860;2023-12-20T02:37:09;6.30;99.90
19734;DHT22;10018;51.230;7.860;2023-12-20T02:39:34;6.20;99.90
19734;DHT22;10018;51.230;7.860;2023-12-20T02:42:00;6.10;99.90
19734;DHT22;10018;51.230;7.860;2023-12-20T02:44:26;6.10;99.90
19734;DHT22;10018;51.230;7.860;2023-12-20T02:46:51;6.00;99.90
19734;DHT22;10018;51.230;7.860;2023-12-20T02:49:17;6.00;99.90
19734;DHT22;10018;51.230;7.860;2023-12-20T02:51:42;6.00;99.90
19734;DHT22;10018;51.230;7.860;2023-12-20T02:54:10;6.00;99.90
19734;DHT22;10018;51.230;7.860;2023-12-20T02:56:36;6.00;99.90
19734;DHT22;10018;51.230;7.860;2023-12-20T02:59:01;6.00;99.90
19734;DHT22;10018;51.230;7.860;2023-12-20T03:01:28;6.00;99.90
19734;DHT22;10018;51.230;7.860;2023-12-20T03:03:53;6.00;99.90
19734;DHT22;10018;51.230;7.860;2023-12-20T03:06:19;6.10;99.90
19734;DHT22;10018;51.230;7.860;2023-12-20T03:08:47;6.00;99.90
19734;DHT22;10018;51.230;7.860;2023-12-20T03:11:13;6.00;99.90
19734;DHT22;10018;51.230;7.860;2023-12-20T03:13:38;6.00;99.90
19734;DHT22;10018;51.230;7.860;2023-12-20T03:16:13;5.90;99.90
19734;DHT22;10018;51.230;7.860;2023-12-20T03:18:41;6.00;99.90
19734;DHT22;10018;51.230;7.860;2023-12-20T03:21:06;6.00;99.90
19734;DHT22;10018;51.230;7.860;2023-12-20T03:23:35;6.00;99.90
19734;DHT22;10018;51.230;7.860;2023-12-20T03:26:00;6.00;99.90
19734;DHT22;10018;51.230;7.860;2023-12-20T03:28:29;6.00;99.90
19734;DHT22;10018;51.230;7.860;2023-12-20T03:30:55;5.90;99.90
19734;DHT22;10018;51.230;7.860;2023-12-20T03:33:21;5.90;99.90
19734;DHT22;10018;51.230;7.860;2023-12-20T03:35:48;5.80;99.90
19734;DHT22;10018;51.230;7.860;2023-12-20T03:38:14;5.80;99.90
19734;DHT22;10018;51.230;7.860;2023-12-20T03:40:39;5.80;99.90
19734;DHT22;10018;51.230;7.860;2023-12-20T03:43:05;5.80;99.90
19734;DHT22;10018;51.230;7.860;2023-12-20T03:45:31;5.90;99.90
19734;DHT22;10018;51.230;7.860;2023-12-20T03:47:56;5.80;99.90
19734;DHT22;10018;51.230;7.860;2023-12-20T03:50:25;5.80;99.90
19734;DHT22;10018;51.230;7.860;2023-12-20T03:52:50;5.80;99.90
19734;DHT22;10018;51.230;7.860;2023-12-20T03:55:16;5.90;99.90
19734;DHT22;10018;51.230;7.860;2023-12-20T03:57:42;5.90;99.90
19734;DHT22;10018;51.230;7.860;2023-12-20T04:00:08;5.90;99.90
19734;DHT22;10018;51.230;7.860;2023-12-20T04:02:36;5.90;99.90
19734;DHT22;10018;51.230;7.860;2023-12-20T04:05:02;5.90;99.90
19734;DHT22;10018;51.230;7.860;2023-12-20T04:07:27;5.90;99.90
19734;DHT22;10018;51.230;7.860;2023-12-20T04:09:55;5.90;99.90
19734;DHT22;10018;51.230;7.860;2023-12-20T04:12:21;5.90;99.90
19734;DHT22;10018;51.230;7.860;2023-12-20T04:14:46;6.00;99.90
19734;DHT22;10018;51.230;7.860;2023-12-20T04:17:12;5.90;99.90
19734;DHT22;10018;51.230;7.860;2023-12-20T04:19:37;5.90;99.90
19734;DHT22;10018;51.230;7.860;2023-12-20T04:22:03;5.90;99.90
19734;DHT22;10018;51.230;7.860;2023-12-20T04:24:28;5.90;99.90
19734;DHT22;10018;51.230;7.860;2023-12-20T04:26:54;5.90;99.90
19734;DHT22;10018;51.230;7.860;2023-12-20T04:29:20;5.90;99.90
19734;DHT22;10018;51.230;7.860;2023-12-20T04:31:45;5.90;99.90
19734;DHT22;10018;51.230;7.860;2023-12-20T04:34:11;5.90;99.90
19734;DHT22;10018;51.230;7.860;2023-12-20T04:36:36;5.90;99.90
19734;DHT22;10018;51.230;7.860;2023-12-20T04:39:02;5.90;99.90
19734;DHT22;10018;51.230;7.860;2023-12-20T04:41:28;5.90;99.90
19734;DHT22;10018;51.230;7.860;2023-12-20T04:43:54;5.90;99.90
19734;DHT22;10018;51.230;7.860;2023-12-20T04:46:19;5.80;99.90
19734;DHT22;10018;51.230;7.860;2023-12-20T04:48:45;5.90;99.90
19734;DHT22;10018;51.230;7.860;2023-12-20T04:51:10;5.80;99.90
19734;DHT22;10018;51.230;7.860;2023-12-20T04:53:36;5.70;99.90
19734;DHT22;10018;51.230;7.860;2023-12-20T04:56:01;5.70;99.90
19734;DHT22;10018;51.230;7.860;2023-12-20T04:58:29;5.70;99.90
19734;DHT22;10018;51.230;7.860;2023-12-20T05:00:55;5.60;99.90
19734;DHT22;10018;51.230;7.860;2023-12-20T05:03:23;5.60;99.90
19734;DHT22;10018;51.230;7.860;2023-12-20T05:05:49;5.60;99.90
19734;DHT22;10018;51.230;7.860;2023-12-20T05:08:14;5.60;99.90
19734;DHT22;10018;51.230;7.860;2023-12-20T05:10:40;5.70;99.90
19734;DHT22;10018;51.230;7.860;2023-12-20T05:13:06;5.60;99.90
19734;DHT22;10018;51.230;7.860;2023-12-20T05:15:31;5.70;99.90
19734;DHT22;10018;51.230;7.860;2023-12-20T05:17:57;5.70;99.90
19734;DHT22;10018;51.230;7.860;2023-12-20T05:20:23;5.60;99.90
19734;DHT22;10018;51.230;7.860;2023-12-20T05:22:48;5.60;99.90
19734;DHT22;10018;51.230;7.860;2023-12-20T05:25:14;5.60;99.90
19734;DHT22;10018;51.230;7.860;2023-12-20T05:27:39;5.60;99.90
19734;DHT22;10018;51.230;7.860;2023-12-20T05:30:06;5.60;99.90
19734;DHT22;10018;51.230;7.860;2023-12-20T05:32:31;5.60;99.90
19734;DHT22;10018;51.230;7.860;2023-12-20T05:34:57;5.60;99.90
19734;DHT22;10018;51.230;7.860;2023-12-20T05:37:22;5.60;99.90
19734;DHT22;10018;51.230;7.860;2023-12-20T05:39:48;5.60;99.90
19734;DHT22;10018;51.230;7.860;2023-12-20T05:42:14;5.60;99.90
19734;DHT22;10018;51.230;7.860;2023-12-20T05:44:39;5.60;99.90
19734;DHT22;10018;51.230;7.860;2023-12-20T05:47:05;5.60;99.90
19734;DHT22;10018;51.230;7.860;2023-12-20T05:49:30;5.70;99.90
19734;DHT22;10018;51.230;7.860;2023-12-20T05:51:56;5.70;99.90
19734;DHT22;10018;51.230;7.860;2023-12-20T05:54:22;5.80;99.90
19734;DHT22;10018;51.230;7.860;2023-12-20T05:56:48;5.80;99.90
19734;DHT22;10018;51.230;7.860;2023-12-20T05:59:14;5.80;99.90
19734;DHT22;10018;51.230;7.860;2023-12-20T06:01:42;5.80;99.90
19734;DHT22;10018;51.230;7.860;2023-12-20T06:04:07;5.80;99.90
19734;DHT22;10018;51.230;7.860;2023-12-20T06:06:33;5.80;99.90
19734;DHT22;10018;51.230;7.860;2023-12-20T06:09:01;5.80;99.90
19734;DHT22;10018;51.230;7.860;2023-12-20T06:11:28;5.80;99.90
19734;DHT22;10018;51.230;7.860;2023-12-20T06:13:56;5.80;99.90
19734;DHT22;10018;51.230;7.860;2023-12-20T06:16:21;5.80;99.90
19734;DHT22;10018;51.230;7.860;2023-12-20T06:18:47;5.80;99.90
19734;DHT22;10018;51.230;7.860;2023-12-20T06:21:12;5.80;99.90
19734;DHT22;10018;51.230;7.860;2023-12-20T06:23:38;5.80;99.90
19734;DHT22;10018;51.230;7.860;2023-12-20T06:26:04;5.80;99.90
19734;DHT22;10018;51.230;7.860;2023-12-20T06:28:29;5.80;99.90
19734;DHT22;10018;51.230;7.860;2023-12-20T06:30:55;5.80;99.90
19734;DHT22;10018;51.230;7.860;2023-12-20T06:33:22;5.80;99.90
19734;DHT22;10018;51.230;7.860;2023-12-20T06:35:48;5.70;99.90
19734;DHT22;10018;51.230;7.860;2023-12-20T06:38:14;5.80;99.90
19734;DHT22;10018;51.230;7.860;2023-12-20T06:40:39;5.80;99.90
19734;DHT22;10018;51.230;7.860;2023-12-20T06:43:05;5.80;99.90
19734;DHT22;10018;51.230;7.860;2023-12-20T06:45:34;5.80;99.90
19734;DHT22;10018;51.230;7.860;2023-12-20T06:47:59;5.80;99.90
19734;DHT22;10018;51.230;7.860;2023-12-20T06:50:25;5.80;99.90
19734;DHT22;10018;51.230;7.860;2023-12-20T06:52:50;5.80;99.90
19734;DHT22;10018;51.230;7.860;2023-12-20T06:55:17;5.80;99.90
19734;DHT22;10018;51.230;7.860;2023-12-20T06:57:42;5.80;99.90
19734;DHT22;10018;51.230;7.860;2023-12-20T07:00:08;5.80;99.90
19734;DHT22;10018;51.230;7.860;2023-12-20T07:02:36;5.80;99.90
19734;DHT22;10018;51.230;7.860;2023-12-20T07:05:01;5.80;99.90
19734;DHT22;10018;51.230;7.860;2023-12-20T07:07:27;5.80;99.90
19734;DHT22;10018;51.230;7.860;2023-12-20T07:09:52;5.80;99.90
19734;DHT22;10018;51.230;7.860;2023-12-20T07:12:18;5.80;99.90
19734;DHT22;10018;51.230;7.860;2023-12-20T07:14:45;5.80;99.90
19734;DHT22;10018;51.230;7.860;2023-12-20T07:17:10;5.80;99.90
19734;DHT22;10018;51.230;7.860;2023-12-20T07:19:39;5.80;99.90
19734;DHT22;10018;51.230;7.860;2023-12-20T07:22:07;5.70;99.90
19734;DHT22;10018;51.230;7.860;2023-12-20T07:24:33;5.70;99.90
19734;DHT22;10018;51.230;7.860;2023-12-20T07:27:00;5.70;99.90
19734;DHT22;10018;51.230;7.860;2023-12-20T07:29:26;5.70;99.90
19734;DHT22;10018;51.230;7.860;2023-12-20T07:31:52;5.70;99.90
19734;DHT22;10018;51.230;7.860;2023-12-20T07:34:21;5.70;99.90
19734;DHT22;10018;51.230;7.860;2023-12-20T07:36:47;5.70;99.90
19734;DHT22;10018;51.230;7.860;2023-12-20T07:39:13;5.70;99.90
19734;DHT22;10018;51.230;7.860;2023-12-20T07:41:39;5.60;99.90
19734;DHT22;10018;51.230;7.860;2023-12-20T07:44:05;5.60;99.90
19734;DHT22;10018;51.230;7.860;2023-12-20T07:46:30;5.70;99.90
19734;DHT22;10018;51.230;7.860;2023-12-20T07:48:56;5.70;99.90
19734;DHT22;10018;51.230;7.860;2023-12-20T07:51:21;5.70;99.90
19734;DHT22;10018;51.230;7.860;2023-12-20T07:53:47;5.70;99.90
19734;DHT22;10018;51.230;7.860;2023-12-20T07:56:17;5.70;99.90
19734;DHT22;10018;51.230;7.860;2023-12-20T07:58:43;5.70;99.90
19734;DHT22;10018;51.230;7.860;2023-12-20T08:01:09;5.80;99.90
19734;DHT22;10018;51.230;7.860;2023-12-20T08:03:34;5.80;99.90
19734;DHT22;10018;51.230;7.860;2023-12-20T08:06:00;5.80;99.90
19734;DHT22;10018;51.230;7.860;2023-12-20T08:08:26;5.80;99.90
19734;DHT22;10018;51.230;7.860;2023-12-20T08:10:51;5.80;99.90
19734;DHT22;10018;51.230;7.860;2023-12-20T08:13:17;5.80;99.90
19734;DHT22;10018;51.230;7.860;2023-12-20T08:15:42;5.80;99.90
19734;DHT22;10018;51.230;7.860;2023-12-20T08:18:08;5.80;99.90
19734;DHT22;10018;51.230;7.860;2023-12-20T08:20:33;5.80;99.90
19734;DHT22;10018;51.230;7.860;2023-12-20T08:22:59;5.90;99.90
19734;DHT22;10018;51.230;7.860;2023-12-20T08:25:24;5.90;99.90
19734;DHT22;10018;51.230;7.860;2023-12-20T08:27:50;5.90;99.90
19734;DHT22;10018;51.230;7.860;2023-12-20T08:30:16;5.90;99.90
19734;DHT22;10018;51.230;7.860;2023-12-20T08:32:46;5.90;99.90
19734;DHT22;10018;51.230;7.860;2023-12-20T08:35:11;5.90;99.90
19734;DHT22;10018;51.230;7.860;2023-12-20T08:37:39;5.90;99.90
19734;DHT22;10018;51.230;7.860;2023-12-20T08:40:05;5.90;99.90
19734;DHT22;10018;51.230;7.860;2023-12-20T08:42:31;5.80;99.90
19734;DHT22;10018;51.230;7.860;2023-12-20T08:45:00;5.90;99.90
19734;DHT22;10018;51.230;7.860;2023-12-20T08:47:25;5.90;99.90
19734;DHT22;10018;51.230;7.860;2023-12-20T08:49:51;5.90;99.90
19734;DHT22;10018;51.230;7.860;2023-12-20T08:52:24;6.00;99.90
19734;DHT22;10018;51.230;7.860;2023-12-20T08:54:50;5.90;99.90
19734;DHT22;10018;51.230;7.860;2023-12-20T08:57:21;5.90;99.90
19734;DHT22;10018;51.230;7.860;2023-12-20T08:59:49;5.90;99.90
19734;DHT22;10018;51.230;7.860;2023-12-20T09:02:15;5.90;99.90
19734;DHT22;10018;51.230;7.860;2023-12-20T09:04:41;6.00;99.90
19734;DHT22;10018;51.230;7.860;2023-12-20T09:07:06;6.00;99.90
19734;DHT22;10018;51.230;7.860;2023-12-20T09:09:33;5.90;99.90
19734;DHT22;10018;51.230;7.860;2023-12-20T09:11:58;5.90;99.90
19734;DHT22;10018;51.230;7.860;2023-12-20T09:14:24;5.90;99.90
19734;DHT22;10018;51.230;7.860;2023-12-20T09:16:50;5.90;99.90
19734;DHT22;10018;51.230;7.860;2023-12-20T09:19:17;6.00;99.90
19734;DHT22;10018;51.230;7.860;2023-12-20T09:21:43;6.00;99.90
19734;DHT22;10018;51.230;7.860;2023-12-20T09:24:08;6.00;99.90
19734;DHT22;10018;51.230;7.860;2023-12-20T09:26:35;6.00;99.90
19734;DHT22;10018;51.230;7.860;2023-12-20T09:29:00;6.00;99.90
19734;DHT22;10018;51.230;7.860;2023-12-20T09:31:28;6.10;99.90
19734;DHT22;10018;51.230;7.860;2023-12-20T09:33:54;6.00;99.90
19734;DHT22;10018;51.230;7.860;2023-12-20T09:36:19;6.10;99.90
19734;DHT22;10018;51.230;7.860;2023-12-20T09:38:45;6.10;99.90
19734;DHT22;10018;51.230;7.860;2023-12-20T09:41:13;6.10;99.90
19734;DHT22;10018;51.230;7.860;2023-12-20T09:43:39;6.10;99.90
19734;DHT22;10018;51.230;7.860;2023-12-20T09:46:06;6.10;99.90
19734;DHT22;10018;51.230;7.860;2023-12-20T09:48:33;6.10;99.90
19734;DHT22;10018;51.230;7.860;2023-12-20T09:51:00;6.10;99.90
19734;DHT22;10018;51.230;7.860;2023-12-20T09:53:26;6.10;99.90
19734;DHT22;10018;51.230;7.860;2023-12-20T09:55:58;6.10;99.90
19734;DHT22;10018;51.230;7.860;2023-12-20T09:58:27;6.10;99.90
19734;DHT22;10018;51.230;7.860;2023-12-20T10:00:54;6.10;99.90
19734;DHT22;10018;51.230;7.860;2023-12-20T10:03:25;6.00;99.90
19734;DHT22;10018;51.230;7.860;2023-12-20T10:05:54;6.10;99.90
19734;DHT22;10018;51.230;7.860;2023-12-20T10:08:21;6.10;99.90
19734;DHT22;10018;51.230;7.860;2023-12-20T10:10:50;6.10;99.90
19734;DHT22;10018;51.230;7.860;2023-12-20T10:13:16;6.10;99.90
19734;DHT22;10018;51.230;7.860;2023-12-20T10:15:41;6.10;99.90
19734;DHT22;10018;51.230;7.860;2023-12-20T10:18:07;6.10;99.90
19734;DHT22;10018;51.230;7.860;2023-12-20T10:20:33;6.20;99.90
19734;DHT22;10018;51.230;7.860;2023-12-20T10:22:59;6.20;99.90
19734;DHT22;10018;51.230;7.860;2023-12-20T10:25:26;6.30;99.90
19734;DHT22;10018;51.230;7.860;2023-12-20T10:28:12;6.30;99.90
19734;DHT22;10018;51.230;7.860;2023-12-20T10:30:38;6.30;99.90
19734;DHT22;10018;51.230;7.860;2023-12-20T10:33:06;6.20;99.90
19734;DHT22;10018;51.230;7.860;2023-12-20T10:35:38;6.20;99.90
19734;DHT22;10018;51.230;7.860;2023-12-20T10:38:05;6.20;99.90
19734;DHT22;10018;51.230;7.860;2023-12-20T10:40:32;6.20;99.90
19734;DHT22;10018;51.230;7.860;2023-12-20T10:43:00;6.20;99.90
19734;DHT22;10018;51.230;7.860;2023-12-20T10:45:26;6.20;99.90
19734;DHT22;10018;51.230;7.860;2023-12-20T10:47:52;6.10;99.90
19734;DHT22;10018;51.230;7.860;2023-12-20T10:50:19;6.10;99.90
19734;DHT22;10018;51.230;7.860;2023-12-20T10:52:47;6.10;99.90
19734;DHT22;10018;51.230;7.860;2023-12-20T10:55:12;6.10;99.90
19734;DHT22;10018;51.230;7.860;2023-12-20T10:57:41;6.10;99.90
19734;DHT22;10018;51.230;7.860;2023-12-20T11:00:08;6.10;99.90
19734;DHT22;10018;51.230;7.860;2023-12-20T11:02:40;6.10;99.90
19734;DHT22;10018;51.230;7.860;2023-12-20T11:05:31;6.10;99.90
19734;DHT22;10018;51.230;7.860;2023-12-20T11:08:14;6.10;99.90
19734;DHT22;10018;51.230;7.860;2023-12-20T11:10:58;6.10;99.90
19734;DHT22;10018;51.230;7.860;2023-12-20T11:13:40;6.10;99.90
19734;DHT22;10018;51.230;7.860;2023-12-20T11:16:09;6.00;99.90
19734;DHT22;10018;51.230;7.860;2023-12-20T11:18:35;6.00;99.90
19734;DHT22;10018;51.230;7.860;2023-12-20T11:21:02;6.00;99.90
19734;DHT22;10018;51.230;7.860;2023-12-20T11:23:30;6.00;99.90
19734;DHT22;10018;51.230;7.860;2023-12-20T11:25:56;6.00;99.90
19734;DHT22;10018;51.230;7.860;2023-12-20T11:28:26;6.00;99.90
19734;DHT22;10018;51.230;7.860;2023-12-20T11:33:23;6.10;99.90
19734;DHT22;10018;51.230;7.860;2023-12-20T11:35:51;6.10;99.90
19734;DHT22;10018;51.230;7.860;2023-12-20T11:38:20;6.10;99.90
19734;DHT22;10018;51.230;7.860;2023-12-20T11:40:48;6.10;99.90
19734;DHT22;10018;51.230;7.860;2023-12-20T11:43:36;6.10;99.90
19734;DHT22;10018;51.230;7.860;2023-12-20T11:46:08;6.10;99.90
19734;DHT22;10018;51.230;7.860;2023-12-20T11:48:40;6.10;99.90
19734;DHT22;10018;51.230;7.860;2023-12-20T11:51:12;6.10;99.90
19734;DHT22;10018;51.230;7.860;2023-12-20T11:53:39;6.10;99.90
19734;DHT22;10018;51.230;7.860;2023-12-20T11:56:08;6.00;99.90
19734;DHT22;10018;51.230;7.860;2023-12-20T11:58:35;6.00;99.90
19734;DHT22;10018;51.230;7.860;2023-12-20T12:01:01;6.00;99.90
19734;DHT22;10018;51.230;7.860;2023-12-20T12:03:30;6.00;99.90
19734;DHT22;10018;51.230;7.860;2023-12-20T12:05:55;6.00;99.90
19734;DHT22;10018;51.230;7.860;2023-12-20T12:08:21;6.00;99.90
19734;DHT22;10018;51.230;7.860;2023-12-20T12:10:47;6.00;99.90
19734;DHT22;10018;51.230;7.860;2023-12-20T12:13:12;6.00;99.90
19734;DHT22;10018;51.230;7.860;2023-12-20T12:15:39;6.00;99.90
19734;DHT22;10018;51.230;7.860;2023-12-20T12:18:07;6.00;99.90
19734;DHT22;10018;51.230;7.860;2023-12-20T12:20:35;6.00;99.90
19734;DHT22;10018;51.230;7.860;2023-12-20T12:23:05;6.00;99.90
19734;DHT22;10018;51.230;7.860;2023-12-20T12:25:32;6.00;99.90
19734;DHT22;10018;51.230;7.860;2023-12-20T12:27:59;6.10;99.90
19734;DHT22;10018;51.230;7.860;2023-12-20T12:30:25;6.10;99.90
19734;DHT22;10018;51.230;7.860;2023-12-20T12:32:51;6.10;99.90
19734;DHT22;10018;51.230;7.860;2023-12-20T12:35:18;6.10;99.90
19734;DHT22;10018;51.230;7.860;2023-12-20T12:37:44;6.10;99.90
19734;DHT22;10018;51.230;7.860;2023-12-20T12:40:14;6.10;99.90
19734;DHT22;10018;51.230;7.860;2023-12-20T12:42:41;6.10;99.90
19734;DHT22;10018;51.230;7.860;2023-12-20T12:45:08;6.10;99.90
19734;DHT22;10018;51.230;7.860;2023-12-20T12:47:36;6.10;99.90
19734;DHT22;10018;51.230;7.860;2023-12-20T12:50:02;6.10;99.90
19734;DHT22;10018;51.230;7.860;2023-12-20T12:52:28;6.20;99.90
19734;DHT22;10018;51.230;7.860;2023-12-20T12:54:53;6.20;99.90
19734;DHT22;10018;51.230;7.860;2023-12-20T12:57:19;6.20;99.90
19734;DHT22;10018;51.230;7.860;2023-12-20T12:59:45;6.20;99.90
19734;DHT22;10018;51.230;7.860;2023-12-20T13:02:14;6.20;99.90
19734;DHT22;10018;51.230;7.860;2023-12-20T13:04:41;6.20;99.90
19734;DHT22;10018;51.230;7.860;2023-12-20T13:07:09;6.10;99.90
19734;DHT22;10018;51.230;7.860;2023-12-20T13:09:38;6.20;99.90
19734;DHT22;10018;51.230;7.860;2023-12-20T13:12:05;6.10;99.90
19734;DHT22;10018;51.230;7.860;2023-12-20T13:14:33;6.10;99.90
19734;DHT22;10018;51.230;7.860;2023-12-20T13:17:00;6.20;99.90
19734;DHT22;10018;51.230;7.860;2023-12-20T13:19:25;6.10;99.90
19734;DHT22;10018;51.230;7.860;2023-12-20T13:21:51;6.20;99.90
19734;DHT22;10018;51.230;7.860;2023-12-20T13:24:16;6.20;99.90
19734;DHT22;10018;51.230;7.860;2023-12-20T13:26:42;6.20;99.90
19734;DHT22;10018;51.230;7.860;2023-12-20T13:29:08;6.20;99.90
19734;DHT22;10018;51.230;7.860;2023-12-20T13:31:33;6.30;99.90
19734;DHT22;10018;51.230;7.860;2023-12-20T13:34:01;6.30;99.90
19734;DHT22;10018;51.230;7.860;2023-12-20T13:36:27;6.40;99.90
19734;DHT22;10018;51.230;7.860;2023-12-20T13:38:53;6.40;99.90
19734;DHT22;10018;51.230;7.860;2023-12-20T13:41:22;6.50;99.90
19734;DHT22;10018;51.230;7.860;2023-12-20T13:43:47;6.50;99.90
19734;DHT22;10018;51.230;7.860;2023-12-20T13:46:13;6.50;99.90
19734;DHT22;10018;51.230;7.860;2023-12-20T13:48:39;6.40;99.90
19734;DHT22;10018;51.230;7.860;2023-12-20T13:51:06;6.40;99.90
19734;DHT22;10018;51.230;7.860;2023-12-20T13:53:32;6.40;99.90
19734;DHT22;10018;51.230;7.860;2023-12-20T13:55:58;6.50;99.90
19734;DHT22;10018;51.230;7.860;2023-12-20T13:58:25;6.50;99.90
19734;DHT22;10018;51.230;7.860;2023-12-20T14:00:51;6.50;99.90
19734;DHT22;10018;51.230;7.860;2023-12-20T14:03:16;6.50;99.90
19734;DHT22;10018;51.230;7.860;2023-12-20T14:05:44;6.40;99.90
19734;DHT22;10018;51.230;7.860;2023-12-20T14:08:10;6.40;99.90
19734;DHT22;10018;51.230;7.860;2023-12-20T14:10:35;6.40;99.90
19734;DHT22;10018;51.230;7.860;2023-12-20T14:13:01;6.40;99.90
19734;DHT22;10018;51.230;7.860;2023-12-20T14:15:31;6.30;99.90
19734;DHT22;10018;51.230;7.860;2023-12-20T14:18:03;6.40;99.90
19734;DHT22;10018;51.230;7.860;2023-12-20T14:20:31;6.40;99.90
19734;DHT22;10018;51.230;7.860;2023-12-20T14:22:57;6.40;99.90
19734;DHT22;10018;51.230;7.860;2023-12-20T14:25:23;6.40;99.90
19734;DHT22;10018;51.230;7.860;2023-12-20T14:27:48;6.40;99.90
19734;DHT22;10018;51.230;7.860;2023-12-20T14:30:14;6.40;99.90
19734;DHT22;10018;51.230;7.860;2023-12-20T14:32:40;6.40;99.90
19734;DHT22;10018;51.230;7.860;2023-12-20T14:35:06;6.40;99.90
19734;DHT22;10018;51.230;7.860;2023-12-20T14:37:35;6.30;99.90
19734;DHT22;10018;51.230;7.860;2023-12-20T14:40:04;6.30;99.90
19734;DHT22;10018;51.230;7.860;2023-12-20T14:42:30;6.30;99.90
19734;DHT22;10018;51.230;7.860;2023-12-20T14:44:57;6.30;99.90
19734;DHT22;10018;51.230;7.860;2023-12-20T14:47:23;6.30;99.90
19734;DHT22;10018;51.230;7.860;2023-12-20T14:49:50;6.30;99.90
19734;DHT22;10018;51.230;7.860;2023-12-20T14:52:18;6.30;99.90
19734;DHT22;10018;51.230;7.860;2023-12-20T14:54:44;6.20;99.90
19734;DHT22;10018;51.230;7.860;2023-12-20T14:57:10;6.20;99.90
19734;DHT22;10018;51.230;7.860;2023-12-20T14:59:35;6.30;99.90
19734;DHT22;10018;51.230;7.860;2023-12-20T15:02:01;6.30;99.90
19734;DHT22;10018;51.230;7.860;2023-12-20T15:04:31;6.30;99.90
19734;DHT22;10018;51.230;7.860;2023-12-20T15:06:56;6.30;99.90
19734;DHT22;10018;51.230;7.860;2023-12-20T15:09:22;6.30;99.90
19734;DHT22;10018;51.230;7.860;2023-12-20T15:11:47;6.30;99.90
19734;DHT22;10018;51.230;7.860;2023-12-20T15:14:13;6.30;99.90
19734;DHT22;10018;51.230;7.860;2023-12-20T15:16:45;6.30;99.90
19734;DHT22;10018;51.230;7.860;2023-12-20T15:19:12;6.30;99.90
19734;DHT22;10018;51.230;7.860;2023-12-20T15:21:37;6.40;99.90
19734;DHT22;10018;51.230;7.860;2023-12-20T15:24:10;6.30;99.90
19734;DHT22;10018;51.230;7.860;2023-12-20T15:26:41;6.40;99.90
19734;DHT22;10018;51.230;7.860;2023-12-20T15:29:07;6.40;99.90
19734;DHT22;10018;51.230;7.860;2023-12-20T15:31:34;6.40;99.90
19734;DHT22;10018;51.230;7.860;2023-12-20T15:34:01;6.40;99.90
19734;DHT22;10018;51.230;7.860;2023-12-20T15:36:26;6.40;99.90
19734;DHT22;10018;51.230;7.860;2023-12-20T15:38:52;6.40;99.90
19734;DHT22;10018;51.230;7.860;2023-12-20T15:41:21;6.40;99.90
19734;DHT22;10018;51.230;7.860;2023-12-20T15:43:47;6.50;99.90